sensor_id;sensor_type;location;lat;lon;timestamp;P1;durP1;ratioP1;P2;durP2;ratioP2
66933;SDS011;53846;51.984;5.890;2022-09-21T00:01:50;109.53;;;104.10;;
66933;SDS011;53846;51.984;5.890;2022-09-21T00:04:20;108.03;;;102.60;;
66933;SDS011;53846;51.984;5.890;2022-09-21T00:06:49;102.90;;;97.83;;
66933;SDS011;53846;51.984;5.890;2022-09-21T00:09:18;109.00;;;103.60;;
66933;SDS011;53846;51.984;5.890;2022-09-21T00:11:50;110.97;;;105.47;;
66933;SDS011;53846;51.984;5.890;2022-09-21T00:14:20;117.53;;;111.63;;
66933;SDS011;53846;51.984;5.890;2022-09-21T00:16:50;120.13;;;114.13;;
66933;SDS011;53846;51.984;5.890;2022-09-21T00:19:20;118.73;;;112.80;;
66933;SDS011;53846;51.984;5.890;2022-09-21T00:21:52;106.97;;;101.67;;
66933;SDS011;53846;51.984;5.890;2022-09-21T00:24:22;104.07;;;98.93;;
66933;SDS011;53846;51.984;5.890;2022-09-21T00:26:55;106.70;;;101.37;;
66933;SDS011;53846;51.984;5.890;2022-09-21T00:29:24;106.53;;;101.23;;
66933;SDS011;53846;51.984;5.890;2022-09-21T00:31:53;105.53;;;100.27;;
66933;SDS011;53846;51.984;5.890;2022-09-21T00:34:25;121.70;;;115.60;;
66933;SDS011;53846;51.984;5.890;2022-09-21T00:36:55;112.07;;;106.47;;
66933;SDS011;53846;51.984;5.890;2022-09-21T00:39:24;115.23;;;109.43;;
66933;SDS011;53846;51.984;5.890;2022-09-21T00:41:56;116.60;;;110.77;;
66933;SDS011;53846;51.984;5.890;2022-09-21T00:44:30;115.83;;;110.07;;
66933;SDS011;53846;51.984;5.890;2022-09-21T00:47:02;118.40;;;112.47;;
66933;SDS011;53846;51.984;5.890;2022-09-21T00:49:35;122.70;;;116.53;;
66933;SDS011;53846;51.984;5.890;2022-09-21T00:52:05;128.37;;;121.87;;
66933;SDS011;53846;51.984;5.890;2022-09-21T00:54:36;132.77;;;126.03;;
66933;SDS011;53846;51.984;5.890;2022-09-21T00:57:12;122.47;;;116.33;;
66933;SDS011;53846;51.984;5.890;2022-09-21T00:59:43;138.73;;;131.73;;
66933;SDS011;53846;51.984;5.890;2022-09-21T01:02:13;134.97;;;128.13;;
66933;SDS011;53846;51.984;5.890;2022-09-21T01:04:42;135.77;;;128.90;;
66933;SDS011;53846;51.984;5.890;2022-09-21T01:07:13;153.03;;;145.17;;
66933;SDS011;53846;51.984;5.890;2022-09-21T01:09:47;141.93;;;134.63;;
66933;SDS011;53846;51.984;5.890;2022-09-21T01:12:28;145.10;;;137.73;;
66933;SDS011;53846;51.984;5.890;2022-09-21T01:15:13;162.93;;;154.77;;
66933;SDS011;53846;51.984;5.890;2022-09-21T01:17:50;151.47;;;143.77;;
66933;SDS011;53846;51.984;5.890;2022-09-21T01:20:29;170.60;;;161.93;;
66933;SDS011;53846;51.984;5.890;2022-09-21T01:23:12;162.40;;;154.20;;
66933;SDS011;53846;51.984;5.890;2022-09-21T01:25:55;180.97;;;171.67;;
66933;SDS011;53846;51.984;5.890;2022-09-21T01:28:46;167.27;;;158.60;;
66933;SDS011;53846;51.984;5.890;2022-09-21T01:31:30;172.63;;;163.83;;
66933;SDS011;53846;51.984;5.890;2022-09-21T01:34:05;172.13;;;163.37;;
66933;SDS011;53846;51.984;5.890;2022-09-21T01:36:38;164.20;;;155.73;;
66933;SDS011;53846;51.984;5.890;2022-09-21T01:39:11;175.47;;;166.43;;
66933;SDS011;53846;51.984;5.890;2022-09-21T01:41:45;169.87;;;161.20;;
66933;SDS011;53846;51.984;5.890;2022-09-21T01:44:19;166.37;;;157.87;;
66933;SDS011;53846;51.984;5.890;2022-09-21T01:46:52;165.80;;;157.27;;
66933;SDS011;53846;51.984;5.890;2022-09-21T01:49:24;160.53;;;152.40;;
66933;SDS011;53846;51.984;5.890;2022-09-21T01:52:01;177.77;;;168.60;;
66933;SDS011;53846;51.984;5.890;2022-09-21T01:54:38;173.27;;;164.43;;
66933;SDS011;53846;51.984;5.890;2022-09-21T01:57:12;183.43;;;174.10;;
66933;SDS011;53846;51.984;5.890;2022-09-21T01:59:48;165.53;;;157.00;;
66933;SDS011;53846;51.984;5.890;2022-09-21T02:02:21;189.57;;;180.00;;
66933;SDS011;53846;51.984;5.890;2022-09-21T02:04:57;177.63;;;168.70;;
66933;SDS011;53846;51.984;5.890;2022-09-21T02:07:27;183.40;;;173.97;;
66933;SDS011;53846;51.984;5.890;2022-09-21T02:09:57;194.03;;;184.27;;
66933;SDS011;53846;51.984;5.890;2022-09-21T02:12:27;189.53;;;179.83;;
66933;SDS011;53846;51.984;5.890;2022-09-21T02:15:00;194.63;;;184.57;;
66933;SDS011;53846;51.984;5.890;2022-09-21T02:17:32;215.47;;;204.57;;
66933;SDS011;53846;51.984;5.890;2022-09-21T02:20:08;200.97;;;190.70;;
66933;SDS011;53846;51.984;5.890;2022-09-21T02:22:49;201.07;;;190.87;;
66933;SDS011;53846;51.984;5.890;2022-09-21T02:25:30;223.87;;;212.47;;
66933;SDS011;53846;51.984;5.890;2022-09-21T02:28:08;203.37;;;193.03;;
66933;SDS011;53846;51.984;5.890;2022-09-21T02:30:46;215.20;;;204.23;;
66933;SDS011;53846;51.984;5.890;2022-09-21T02:33:22;211.47;;;200.70;;
66933;SDS011;53846;51.984;5.890;2022-09-21T02:35:58;215.57;;;204.47;;
66933;SDS011;53846;51.984;5.890;2022-09-21T02:38:34;229.63;;;218.00;;
66933;SDS011;53846;51.984;5.890;2022-09-21T02:41:08;208.33;;;197.57;;
66933;SDS011;53846;51.984;5.890;2022-09-21T02:43:42;226.63;;;215.13;;
66933;SDS011;53846;51.984;5.890;2022-09-21T02:46:21;216.37;;;205.40;;
66933;SDS011;53846;51.984;5.890;2022-09-21T02:48:54;220.73;;;209.63;;
66933;SDS011;53846;51.984;5.890;2022-09-21T02:51:28;218.90;;;207.73;;
66933;SDS011;53846;51.984;5.890;2022-09-21T02:54:00;237.60;;;225.50;;
66933;SDS011;53846;51.984;5.890;2022-09-21T02:56:32;220.07;;;208.87;;
66933;SDS011;53846;51.984;5.890;2022-09-21T02:59:03;223.37;;;212.00;;
66933;SDS011;53846;51.984;5.890;2022-09-21T03:01:37;238.30;;;226.20;;
66933;SDS011;53846;51.984;5.890;2022-09-21T03:04:08;233.40;;;221.60;;
66933;SDS011;53846;51.984;5.890;2022-09-21T03:06:37;209.43;;;198.60;;
66933;SDS011;53846;51.984;5.890;2022-09-21T03:09:07;233.80;;;221.73;;
66933;SDS011;53846;51.984;5.890;2022-09-21T03:11:36;224.17;;;212.77;;
66933;SDS011;53846;51.984;5.890;2022-09-21T03:14:07;236.33;;;224.30;;
66933;SDS011;53846;51.984;5.890;2022-09-21T03:16:39;245.40;;;232.87;;
66933;SDS011;53846;51.984;5.890;2022-09-21T03:19:08;236.40;;;224.27;;
66933;SDS011;53846;51.984;5.890;2022-09-21T03:21:38;246.40;;;233.87;;
66933;SDS011;53846;51.984;5.890;2022-09-21T03:24:07;242.00;;;229.77;;
66933;SDS011;53846;51.984;5.890;2022-09-21T03:26:37;218.00;;;206.83;;
66933;SDS011;53846;51.984;5.890;2022-09-21T03:29:08;234.43;;;222.40;;
66933;SDS011;53846;51.984;5.890;2022-09-21T03:31:40;238.20;;;225.83;;
66933;SDS011;53846;51.984;5.890;2022-09-21T03:34:09;248.03;;;235.50;;
66933;SDS011;53846;51.984;5.890;2022-09-21T03:36:38;246.53;;;233.90;;
66933;SDS011;53846;51.984;5.890;2022-09-21T03:39:07;252.77;;;239.73;;
66933;SDS011;53846;51.984;5.890;2022-09-21T03:41:37;243.07;;;230.57;;
66933;SDS011;53846;51.984;5.890;2022-09-21T03:44:06;243.57;;;231.00;;
66933;SDS011;53846;51.984;5.890;2022-09-21T03:46:35;242.20;;;229.87;;
66933;SDS011;53846;51.984;5.890;2022-09-21T03:49:07;250.13;;;237.20;;
66933;SDS011;53846;51.984;5.890;2022-09-21T03:51:36;223.90;;;212.47;;
66933;SDS011;53846;51.984;5.890;2022-09-21T03:54:05;232.13;;;220.13;;
66933;SDS011;53846;51.984;5.890;2022-09-21T03:56:35;242.07;;;229.67;;
66933;SDS011;53846;51.984;5.890;2022-09-21T03:59:04;229.03;;;217.30;;
66933;SDS011;53846;51.984;5.890;2022-09-21T04:01:33;243.10;;;230.50;;
66933;SDS011;53846;51.984;5.890;2022-09-21T04:04:03;264.43;;;250.67;;
66933;SDS011;53846;51.984;5.890;2022-09-21T04:06:35;238.10;;;225.87;;
66933;SDS011;53846;51.984;5.890;2022-09-21T04:09:05;240.10;;;227.83;;
66933;SDS011;53846;51.984;5.890;2022-09-21T04:11:35;242.03;;;229.73;;
66933;SDS011;53846;51.984;5.890;2022-09-21T04:14:05;245.07;;;232.73;;
66933;SDS011;53846;51.984;5.890;2022-09-21T04:16:34;238.33;;;225.40;;
66933;SDS011;53846;51.984;5.890;2022-09-21T04:19:03;233.47;;;221.40;;
66933;SDS011;53846;51.984;5.890;2022-09-21T04:21:35;230.47;;;218.43;;
66933;SDS011;53846;51.984;5.890;2022-09-21T04:24:04;253.43;;;240.27;;
66933;SDS011;53846;51.984;5.890;2022-09-21T04:26:34;253.00;;;239.97;;
66933;SDS011;53846;51.984;5.890;2022-09-21T04:29:05;29.02;;;27.65;;
66933;SDS011;53846;51.984;5.890;2022-09-21T04:31:35;174.27;;;165.33;;
66933;SDS011;53846;51.984;5.890;2022-09-21T04:34:04;210.27;;;199.57;;
66933;SDS011;53846;51.984;5.890;2022-09-21T04:36:36;212.53;;;201.80;;
66933;SDS011;53846;51.984;5.890;2022-09-21T04:39:06;216.43;;;205.40;;
66933;SDS011;53846;51.984;5.890;2022-09-21T04:41:35;210.17;;;199.50;;
66933;SDS011;53846;51.984;5.890;2022-09-21T04:44:04;245.70;;;233.10;;
66933;SDS011;53846;51.984;5.890;2022-09-21T04:46:34;228.13;;;216.43;;
66933;SDS011;53846;51.984;5.890;2022-09-21T04:49:03;235.97;;;223.93;;
66933;SDS011;53846;51.984;5.890;2022-09-21T04:51:33;249.70;;;237.03;;
66933;SDS011;53846;51.984;5.890;2022-09-21T04:54:05;253.47;;;240.43;;
66933;SDS011;53846;51.984;5.890;2022-09-21T04:56:34;242.33;;;230.20;;
66933;SDS011;53846;51.984;5.890;2022-09-21T04:59:03;247.97;;;235.40;;
66933;SDS011;53846;51.984;5.890;2022-09-21T05:01:33;238.70;;;226.57;;
66933;SDS011;53846;51.984;5.890;2022-09-21T05:04:02;248.57;;;236.10;;
66933;SDS011;53846;51.984;5.890;2022-09-21T05:06:32;254.13;;;241.37;;
66933;SDS011;53846;51.984;5.890;2022-09-21T05:09:02;239.97;;;227.70;;
66933;SDS011;53846;51.984;5.890;2022-09-21T05:11:46;250.47;;;237.77;;
66933;SDS011;53846;51.984;5.890;2022-09-21T05:14:16;236.10;;;224.20;;
66933;SDS011;53846;51.984;5.890;2022-09-21T05:16:45;232.10;;;219.97;;
66933;SDS011;53846;51.984;5.890;2022-09-21T05:19:15;240.97;;;228.57;;
66933;SDS011;53846;51.984;5.890;2022-09-21T05:21:44;230.23;;;218.43;;
66933;SDS011;53846;51.984;5.890;2022-09-21T05:24:16;233.93;;;222.03;;
66933;SDS011;53846;51.984;5.890;2022-09-21T05:26:45;241.13;;;228.90;;
66933;SDS011;53846;51.984;5.890;2022-09-21T05:29:15;240.10;;;227.67;;
66933;SDS011;53846;51.984;5.890;2022-09-21T05:31:46;246.03;;;233.37;;
66933;SDS011;53846;51.984;5.890;2022-09-21T05:34:21;232.43;;;220.67;;
66933;SDS011;53846;51.984;5.890;2022-09-21T05:36:58;242.63;;;230.27;;
66933;SDS011;53846;51.984;5.890;2022-09-21T05:39:33;51.83;;;49.28;;
66933;SDS011;53846;51.984;5.890;2022-09-21T05:42:03;207.33;;;196.77;;
66933;SDS011;53846;51.984;5.890;2022-09-21T05:44:33;221.23;;;210.00;;
66933;SDS011;53846;51.984;5.890;2022-09-21T05:47:04;218.93;;;207.87;;
66933;SDS011;53846;51.984;5.890;2022-09-21T05:49:46;259.60;;;246.17;;
66933;SDS011;53846;51.984;5.890;2022-09-21T05:52:20;253.73;;;240.87;;
66933;SDS011;53846;51.984;5.890;2022-09-21T05:55:01;229.40;;;217.63;;
66933;SDS011;53846;51.984;5.890;2022-09-21T05:57:38;225.87;;;214.10;;
66933;SDS011;53846;51.984;5.890;2022-09-21T06:00:15;243.73;;;231.10;;
66933;SDS011;53846;51.984;5.890;2022-09-21T06:02:53;234.47;;;222.43;;
66933;SDS011;53846;51.984;5.890;2022-09-21T06:05:32;237.47;;;225.37;;
66933;SDS011;53846;51.984;5.890;2022-09-21T06:08:01;230.23;;;218.60;;
66933;SDS011;53846;51.984;5.890;2022-09-21T06:10:33;231.60;;;219.63;;
66933;SDS011;53846;51.984;5.890;2022-09-21T06:13:03;230.40;;;218.57;;
66933;SDS011;53846;51.984;5.890;2022-09-21T06:15:33;221.07;;;209.63;;
66933;SDS011;53846;51.984;5.890;2022-09-21T06:18:03;238.17;;;226.00;;
66933;SDS011;53846;51.984;5.890;2022-09-21T06:20:32;235.63;;;223.70;;
66933;SDS011;53846;51.984;5.890;2022-09-21T06:23:02;243.60;;;231.23;;
66933;SDS011;53846;51.984;5.890;2022-09-21T06:25:34;228.33;;;217.00;;
66933;SDS011;53846;51.984;5.890;2022-09-21T06:28:04;207.17;;;196.53;;
66933;SDS011;53846;51.984;5.890;2022-09-21T06:30:35;232.47;;;220.53;;
66933;SDS011;53846;51.984;5.890;2022-09-21T06:33:06;224.50;;;213.13;;
66933;SDS011;53846;51.984;5.890;2022-09-21T06:35:36;216.20;;;205.23;;
66933;SDS011;53846;51.984;5.890;2022-09-21T06:38:06;223.80;;;212.50;;
66933;SDS011;53846;51.984;5.890;2022-09-21T06:40:38;222.20;;;210.83;;
66933;SDS011;53846;51.984;5.890;2022-09-21T06:43:07;212.17;;;201.37;;
66933;SDS011;53846;51.984;5.890;2022-09-21T06:45:36;228.97;;;217.13;;
66933;SDS011;53846;51.984;5.890;2022-09-21T06:48:05;226.50;;;214.83;;
66933;SDS011;53846;51.984;5.890;2022-09-21T06:50:35;235.90;;;223.80;;
66933;SDS011;53846;51.984;5.890;2022-09-21T06:53:04;241.40;;;229.10;;
66933;SDS011;53846;51.984;5.890;2022-09-21T06:55:33;228.40;;;216.77;;
66933;SDS011;53846;51.984;5.890;2022-09-21T06:58:05;233.50;;;221.53;;
66933;SDS011;53846;51.984;5.890;2022-09-21T07:00:34;202.63;;;192.37;;
66933;SDS011;53846;51.984;5.890;2022-09-21T07:03:03;211.97;;;201.13;;
66933;SDS011;53846;51.984;5.890;2022-09-21T07:05:33;211.43;;;200.60;;
66933;SDS011;53846;51.984;5.890;2022-09-21T07:08:02;204.10;;;193.70;;
66933;SDS011;53846;51.984;5.890;2022-09-21T07:10:32;198.73;;;188.63;;
66933;SDS011;53846;51.984;5.890;2022-09-21T07:13:01;200.10;;;189.57;;
66933;SDS011;53846;51.984;5.890;2022-09-21T07:15:34;180.10;;;170.73;;
66933;SDS011;53846;51.984;5.890;2022-09-21T07:18:09;170.97;;;162.13;;
66933;SDS011;53846;51.984;5.890;2022-09-21T07:20:39;162.60;;;154.13;;
66933;SDS011;53846;51.984;5.890;2022-09-21T07:23:09;151.50;;;143.70;;
66933;SDS011;53846;51.984;5.890;2022-09-21T07:25:40;126.00;;;119.53;;
66933;SDS011;53846;51.984;5.890;2022-09-21T07:28:09;113.63;;;107.73;;
66933;SDS011;53846;51.984;5.890;2022-09-21T07:30:41;69.07;;;65.60;;
66933;SDS011;53846;51.984;5.890;2022-09-21T07:33:11;50.73;;;47.87;;
66933;SDS011;53846;51.984;5.890;2022-09-21T07:35:40;34.10;;;32.47;;
66933;SDS011;53846;51.984;5.890;2022-09-21T07:38:18;29.92;;;28.48;;
66933;SDS011;53846;51.984;5.890;2022-09-21T07:40:48;19.85;;;18.95;;
66933;SDS011;53846;51.984;5.890;2022-09-21T07:43:17;19.42;;;18.52;;
66933;SDS011;53846;51.984;5.890;2022-09-21T07:45:53;17.95;;;17.15;;
66933;SDS011;53846;51.984;5.890;2022-09-21T07:48:23;20.98;;;19.98;;
66933;SDS011;53846;51.984;5.890;2022-09-21T07:50:53;30.10;;;28.65;;
66933;SDS011;53846;51.984;5.890;2022-09-21T07:53:23;40.20;;;38.30;;
66933;SDS011;53846;51.984;5.890;2022-09-21T07:55:53;43.30;;;41.10;;
66933;SDS011;53846;51.984;5.890;2022-09-21T07:58:28;44.20;;;42.05;;
66933;SDS011;53846;51.984;5.890;2022-09-21T08:01:12;45.13;;;42.95;;
66933;SDS011;53846;51.984;5.890;2022-09-21T08:03:42;48.20;;;45.90;;
66933;SDS011;53846;51.984;5.890;2022-09-21T08:06:11;46.40;;;44.17;;
66933;SDS011;53846;51.984;5.890;2022-09-21T08:08:40;47.58;;;45.33;;
66933;SDS011;53846;51.984;5.890;2022-09-21T08:11:12;46.67;;;44.45;;
66933;SDS011;53846;51.984;5.890;2022-09-21T08:13:42;52.97;;;50.28;;
66933;SDS011;53846;51.984;5.890;2022-09-21T08:16:15;53.30;;;50.78;;
66933;SDS011;53846;51.984;5.890;2022-09-21T08:18:44;48.47;;;46.17;;
66933;SDS011;53846;51.984;5.890;2022-09-21T08:21:14;53.65;;;51.10;;
66933;SDS011;53846;51.984;5.890;2022-09-21T08:23:45;45.58;;;43.42;;
66933;SDS011;53846;51.984;5.890;2022-09-21T08:26:15;45.03;;;42.85;;
66933;SDS011;53846;51.984;5.890;2022-09-21T08:28:47;32.83;;;31.33;;
66933;SDS011;53846;51.984;5.890;2022-09-21T08:31:21;30.65;;;29.25;;
66933;SDS011;53846;51.984;5.890;2022-09-21T08:33:51;26.15;;;24.95;;
66933;SDS011;53846;51.984;5.890;2022-09-21T08:36:22;22.75;;;21.73;;
66933;SDS011;53846;51.984;5.890;2022-09-21T08:38:52;21.65;;;20.65;;
66933;SDS011;53846;51.984;5.890;2022-09-21T08:41:23;17.52;;;16.73;;
66933;SDS011;53846;51.984;5.890;2022-09-21T08:44:04;50.60;;;48.10;;
66933;SDS011;53846;51.984;5.890;2022-09-21T08:46:41;9.07;;;8.68;;
66933;SDS011;53846;51.984;5.890;2022-09-21T08:49:11;6.45;;;6.20;;
66933;SDS011;53846;51.984;5.890;2022-09-21T08:51:45;7.18;;;6.80;;
66933;SDS011;53846;51.984;5.890;2022-09-21T08:54:19;6.28;;;5.93;;
66933;SDS011;53846;51.984;5.890;2022-09-21T08:56:54;6.40;;;6.15;;
66933;SDS011;53846;51.984;5.890;2022-09-21T08:59:24;9.93;;;9.50;;
66933;SDS011;53846;51.984;5.890;2022-09-21T09:01:58;12.27;;;11.73;;
66933;SDS011;53846;51.984;5.890;2022-09-21T09:04:48;15.70;;;14.98;;
66933;SDS011;53846;51.984;5.890;2022-09-21T09:07:26;13.32;;;12.50;;
66933;SDS011;53846;51.984;5.890;2022-09-21T09:10:16;20.80;;;19.80;;
66933;SDS011;53846;51.984;5.890;2022-09-21T09:12:56;23.02;;;21.98;;
66933;SDS011;53846;51.984;5.890;2022-09-21T09:15:47;25.33;;;24.15;;
66933;SDS011;53846;51.984;5.890;2022-09-21T09:18:27;27.58;;;26.27;;
66933;SDS011;53846;51.984;5.890;2022-09-21T09:21:07;36.22;;;34.50;;
66933;SDS011;53846;51.984;5.890;2022-09-21T09:23:42;45.30;;;43.13;;
66933;SDS011;53846;51.984;5.890;2022-09-21T09:26:17;45.90;;;43.75;;
66933;SDS011;53846;51.984;5.890;2022-09-21T09:28:50;56.15;;;53.50;;
66933;SDS011;53846;51.984;5.890;2022-09-21T09:31:24;62.83;;;59.85;;
66933;SDS011;53846;51.984;5.890;2022-09-21T09:33:59;69.13;;;65.85;;
66933;SDS011;53846;51.984;5.890;2022-09-21T09:36:37;93.95;;;89.55;;
66933;SDS011;53846;51.984;5.890;2022-09-21T09:39:12;88.88;;;84.68;;
66933;SDS011;53846;51.984;5.890;2022-09-21T09:41:58;84.55;;;80.55;;
66933;SDS011;53846;51.984;5.890;2022-09-21T09:44:48;78.38;;;74.68;;
66933;SDS011;53846;51.984;5.890;2022-09-21T09:47:41;68.00;;;64.75;;
66933;SDS011;53846;51.984;5.890;2022-09-21T09:50:22;62.50;;;59.50;;
66933;SDS011;53846;51.984;5.890;2022-09-21T09:52:57;53.88;;;51.28;;
66933;SDS011;53846;51.984;5.890;2022-09-21T09:55:34;45.95;;;43.78;;
66933;SDS011;53846;51.984;5.890;2022-09-21T09:58:05;39.42;;;37.58;;
66933;SDS011;53846;51.984;5.890;2022-09-21T10:00:44;36.35;;;34.65;;
66933;SDS011;53846;51.984;5.890;2022-09-21T10:03:16;33.35;;;31.80;;
66933;SDS011;53846;51.984;5.890;2022-09-21T10:05:49;29.05;;;27.75;;
66933;SDS011;53846;51.984;5.890;2022-09-21T10:08:26;27.65;;;26.35;;
66933;SDS011;53846;51.984;5.890;2022-09-21T10:10:58;25.85;;;24.65;;
66933;SDS011;53846;51.984;5.890;2022-09-21T10:13:28;24.52;;;23.38;;
66933;SDS011;53846;51.984;5.890;2022-09-21T10:15:59;25.17;;;24.02;;
66933;SDS011;53846;51.984;5.890;2022-09-21T10:18:33;25.45;;;24.25;;
66933;SDS011;53846;51.984;5.890;2022-09-21T10:21:08;24.10;;;23.00;;
66933;SDS011;53846;51.984;5.890;2022-09-21T10:23:45;23.30;;;22.20;;
66933;SDS011;53846;51.984;5.890;2022-09-21T10:26:17;23.85;;;22.75;;
66933;SDS011;53846;51.984;5.890;2022-09-21T10:28:53;25.67;;;24.50;;
66933;SDS011;53846;51.984;5.890;2022-09-21T10:31:24;25.75;;;24.55;;
66933;SDS011;53846;51.984;5.890;2022-09-21T10:34:04;18.05;;;17.25;;
66933;SDS011;53846;51.984;5.890;2022-09-21T10:36:41;14.20;;;13.60;;
66933;SDS011;53846;51.984;5.890;2022-09-21T10:39:20;15.23;;;14.52;;
66933;SDS011;53846;51.984;5.890;2022-09-21T10:41:52;15.95;;;15.25;;
66933;SDS011;53846;51.984;5.890;2022-09-21T10:44:25;16.95;;;16.17;;
66933;SDS011;53846;51.984;5.890;2022-09-21T10:47:01;19.30;;;18.40;;
66933;SDS011;53846;51.984;5.890;2022-09-21T10:49:42;18.23;;;17.42;;
66933;SDS011;53846;51.984;5.890;2022-09-21T10:52:17;19.55;;;18.67;;
66933;SDS011;53846;51.984;5.890;2022-09-21T10:54:50;20.48;;;19.48;;
66933;SDS011;53846;51.984;5.890;2022-09-21T10:57:23;21.08;;;20.10;;
66933;SDS011;53846;51.984;5.890;2022-09-21T10:59:55;19.17;;;18.33;;
66933;SDS011;53846;51.984;5.890;2022-09-21T11:05:13;20.13;;;19.23;;
66933;SDS011;53846;51.984;5.890;2022-09-21T11:07:48;14.02;;;13.43;;
66933;SDS011;53846;51.984;5.890;2022-09-21T11:10:23;13.07;;;12.43;;
66933;SDS011;53846;51.984;5.890;2022-09-21T11:13:02;14.70;;;14.05;;
66933;SDS011;53846;51.984;5.890;2022-09-21T11:15:43;17.10;;;16.30;;
66933;SDS011;53846;51.984;5.890;2022-09-21T11:18:20;13.77;;;13.18;;
66933;SDS011;53846;51.984;5.890;2022-09-21T11:20:53;11.45;;;10.95;;
66933;SDS011;53846;51.984;5.890;2022-09-21T11:23:35;13.20;;;12.60;;
66933;SDS011;53846;51.984;5.890;2022-09-21T11:26:13;11.82;;;11.32;;
66933;SDS011;53846;51.984;5.890;2022-09-21T11:28:50;11.70;;;11.20;;
66933;SDS011;53846;51.984;5.890;2022-09-21T11:34:31;9.90;;;9.50;;
66933;SDS011;53846;51.984;5.890;2022-09-21T11:37:19;9.85;;;9.45;;
66933;SDS011;53846;51.984;5.890;2022-09-21T11:40:04;10.20;;;9.80;;
66933;SDS011;53846;51.984;5.890;2022-09-21T11:42:45;9.43;;;9.02;;
66933;SDS011;53846;51.984;5.890;2022-09-21T11:45:27;14.02;;;13.43;;
66933;SDS011;53846;51.984;5.890;2022-09-21T11:48:15;21.25;;;20.25;;
66933;SDS011;53846;51.984;5.890;2022-09-21T11:50:53;23.20;;;22.13;;
66933;SDS011;53846;51.984;5.890;2022-09-21T11:53:38;22.42;;;21.40;;
66933;SDS011;53846;51.984;5.890;2022-09-21T11:56:25;19.02;;;18.15;;
66933;SDS011;53846;51.984;5.890;2022-09-21T11:59:21;14.70;;;14.05;;
66933;SDS011;53846;51.984;5.890;2022-09-21T12:02:18;12.00;;;11.50;;
66933;SDS011;53846;51.984;5.890;2022-09-21T12:05:00;9.77;;;9.38;;
66933;SDS011;53846;51.984;5.890;2022-09-21T12:07:46;7.07;;;6.78;;
66933;SDS011;53846;51.984;5.890;2022-09-21T12:10:37;7.85;;;7.55;;
66933;SDS011;53846;51.984;5.890;2022-09-21T12:13:17;9.82;;;9.43;;
66933;SDS011;53846;51.984;5.890;2022-09-21T12:15:55;12.00;;;11.40;;
66933;SDS011;53846;51.984;5.890;2022-09-21T12:18:31;12.38;;;11.77;;
66933;SDS011;53846;51.984;5.890;2022-09-21T12:21:08;13.70;;;13.10;;
66933;SDS011;53846;51.984;5.890;2022-09-21T12:23:43;16.05;;;15.35;;
66933;SDS011;53846;51.984;5.890;2022-09-21T12:26:26;17.88;;;17.08;;
66933;SDS011;53846;51.984;5.890;2022-09-21T12:29:04;18.85;;;18.00;;
66933;SDS011;53846;51.984;5.890;2022-09-21T12:31:41;20.30;;;19.38;;
66933;SDS011;53846;51.984;5.890;2022-09-21T12:34:14;17.27;;;16.50;;
66933;SDS011;53846;51.984;5.890;2022-09-21T12:36:51;16.50;;;15.77;;
66933;SDS011;53846;51.984;5.890;2022-09-21T12:39:27;12.20;;;11.70;;
66933;SDS011;53846;51.984;5.890;2022-09-21T12:42:02;11.05;;;10.57;;
66933;SDS011;53846;51.984;5.890;2022-09-21T12:44:41;9.38;;;8.98;;
66933;SDS011;53846;51.984;5.890;2022-09-21T12:47:24;10.25;;;8.60;;
66933;SDS011;53846;51.984;5.890;2022-09-21T12:50:01;7.15;;;6.85;;
66933;SDS011;53846;51.984;5.890;2022-09-21T12:52:35;7.40;;;7.10;;
66933;SDS011;53846;51.984;5.890;2022-09-21T12:55:07;6.80;;;6.50;;
66933;SDS011;53846;51.984;5.890;2022-09-21T12:57:48;6.20;;;6.00;;
66933;SDS011;53846;51.984;5.890;2022-09-21T13:00:27;7.43;;;7.13;;
66933;SDS011;53846;51.984;5.890;2022-09-21T13:03:02;7.97;;;7.68;;
66933;SDS011;53846;51.984;5.890;2022-09-21T13:05:39;10.10;;;9.70;;
66933;SDS011;53846;51.984;5.890;2022-09-21T13:08:18;12.57;;;11.93;;
66933;SDS011;53846;51.984;5.890;2022-09-21T13:10:55;15.32;;;14.63;;
66933;SDS011;53846;51.984;5.890;2022-09-21T13:13:30;16.80;;;16.08;;
66933;SDS011;53846;51.984;5.890;2022-09-21T13:16:04;17.52;;;16.73;;
66933;SDS011;53846;51.984;5.890;2022-09-21T13:18:34;19.33;;;18.42;;
66933;SDS011;53846;51.984;5.890;2022-09-21T13:21:14;20.23;;;19.33;;
66933;SDS011;53846;51.984;5.890;2022-09-21T13:23:50;17.15;;;16.35;;
66933;SDS011;53846;51.984;5.890;2022-09-21T13:26:35;13.07;;;12.48;;
66933;SDS011;53846;51.984;5.890;2022-09-21T13:38:22;20.33;;;19.40;;
66933;SDS011;53846;51.984;5.890;2022-09-21T13:40:55;25.63;;;24.45;;
66933;SDS011;53846;51.984;5.890;2022-09-21T13:49:25;41.60;;;39.65;;
66933;SDS011;53846;51.984;5.890;2022-09-21T13:52:17;39.75;;;37.88;;
66933;SDS011;53846;51.984;5.890;2022-09-21T13:54:53;35.50;;;33.80;;
66933;SDS011;53846;51.984;5.890;2022-09-21T13:57:26;32.20;;;30.70;;
66933;SDS011;53846;51.984;5.890;2022-09-21T14:00:07;23.65;;;22.52;;
66933;SDS011;53846;51.984;5.890;2022-09-21T14:03:16;23.25;;;21.88;;
66933;SDS011;53846;51.984;5.890;2022-09-21T14:05:52;11.55;;;11.05;;
66933;SDS011;53846;51.984;5.890;2022-09-21T14:08:24;9.07;;;8.68;;
66933;SDS011;53846;51.984;5.890;2022-09-21T14:10:58;8.48;;;8.13;;
66933;SDS011;53846;51.984;5.890;2022-09-21T14:13:33;9.85;;;9.45;;
66933;SDS011;53846;51.984;5.890;2022-09-21T14:19:57;8.68;;;8.27;;
66933;SDS011;53846;51.984;5.890;2022-09-21T14:25:14;11.20;;;10.70;;
66933;SDS011;53846;51.984;5.890;2022-09-21T14:28:01;14.40;;;13.77;;
66933;SDS011;53846;51.984;5.890;2022-09-21T14:30:33;17.02;;;16.23;;
66933;SDS011;53846;51.984;5.890;2022-09-21T14:33:19;17.05;;;16.25;;
66933;SDS011;53846;51.984;5.890;2022-09-21T14:35:54;21.15;;;20.15;;
66933;SDS011;53846;51.984;5.890;2022-09-21T14:38:30;22.80;;;21.80;;
66933;SDS011;53846;51.984;5.890;2022-09-21T14:41:06;26.23;;;25.02;;
66933;SDS011;53846;51.984;5.890;2022-09-21T14:43:36;28.88;;;27.55;;
66933;SDS011;53846;51.984;5.890;2022-09-21T14:46:14;28.25;;;26.95;;
66933;SDS011;53846;51.984;5.890;2022-09-21T14:49:00;20.83;;;19.88;;
66933;SDS011;53846;51.984;5.890;2022-09-21T14:51:38;15.73;;;15.02;;
66933;SDS011;53846;51.984;5.890;2022-09-21T14:54:22;9.57;;;9.18;;
66933;SDS011;53846;51.984;5.890;2022-09-21T14:57:08;6.50;;;6.22;;
66933;SDS011;53846;51.984;5.890;2022-09-21T14:59:49;5.60;;;5.40;;
66933;SDS011;53846;51.984;5.890;2022-09-21T15:02:28;6.05;;;5.85;;
66933;SDS011;53846;51.984;5.890;2022-09-21T15:05:03;6.55;;;6.25;;
66933;SDS011;53846;51.984;5.890;2022-09-21T15:07:44;7.30;;;7.00;;
66933;SDS011;53846;51.984;5.890;2022-09-21T15:10:33;8.98;;;8.57;;
66933;SDS011;53846;51.984;5.890;2022-09-21T15:16:24;12.85;;;11.85;;
66933;SDS011;53846;51.984;5.890;2022-09-21T15:19:10;12.65;;;12.13;;
66933;SDS011;53846;51.984;5.890;2022-09-21T15:21:42;15.50;;;14.80;;
66933;SDS011;53846;51.984;5.890;2022-09-21T15:24:17;17.15;;;16.35;;